Hawaii METAR Reports

 

PHOG - Kahului, Hawaii, USA
Distance from station: WNW 8mi, 13km
Updated: Tue, 22-Oct-2019 3:54am HST
Clear
Clear
 Wind from NE
Wind: NE 6 mph , 9 km/h
Temperature: 77°F , 25°C
Dew Point: 66°F , 19°C
Humidity: 69%
Barometer: 29.96 inHg , 1014.6 hPa
Clouds: Clear
Visibility: 10 miles , 16 km
2019/10/22 13:54 PHOG 221354Z AUTO 04005KT 10SM CLR 25/19 A2996 RMK AO2 SLP151 T02500189 TSNO
PHJH - Lahaina/West Mau, Hawaii, USA
Distance from station: WNW 24mi, 39km
Updated: Mon, 21-Oct-2019 5:50pm HST
NOT Current
Few Clouds
Few Clouds
 Wind from ENE
Wind: ENE 13 mph , 20 km/h, Gust: 24 mph , 39 km/h
Temperature: 81°F , 27°C
Heat Index: 83°F , 28°C
Dew Point: 66°F , 19°C
Humidity: 62%
Barometer: 29.97 inHg , 1014.9 hPa
Clouds: Few Clouds
Visibility: 10 miles , 16 km
Cloud details: Few Clouds 3000 ft
2019/10/22 03:50 PHJH 220350Z 06011G21KT 10SM FEW030 27/19 A2997 RMK LAST
 
PHNY - Lanai City Airpo, Hawaii, USA
Distance from station: W 40mi, 65km
Updated: Tue, 22-Oct-2019 3:56am HST
Clear
Clear
 Wind from NNE
Wind: NNE 10 mph , 17 km/h
Temperature: 70°F , 21°C
Dew Point: 70°F , 21°C
Humidity: 100%
Barometer: 30.03 inHg , 1016.9 hPa
Clouds: Clear
Visibility: 10 miles , 16 km
2019/10/22 13:56 PHNY 221356Z AUTO 03009KT 10SM CLR 21/21 A3003 RMK AO2 SLP147 T02110211 $
PHMK - Molokai, Hawaii, USA
Distance from station: WNW 55mi, 88km
Updated: Tue, 22-Oct-2019 3:54am HST
Clear
Clear
 Wind from NE
Wind: NE 5 mph , 7 km/h
Temperature: 77°F , 25°C
Dew Point: 63°F , 17°C
Humidity: 61%
Barometer: 29.98 inHg , 1015.2 hPa
Clouds: Clear
Visibility: 10 miles , 16 km
2019/10/22 13:54 PHMK 221354Z AUTO 05004KT 10SM CLR 25/17 A2998 RMK AO2 SLP152 T02500167 TSNO
 
PHKO - Kailua/Kona, Hawaii, USA
Distance from station: SSE 79mi, 128km
Updated: Tue, 22-Oct-2019 3:53am HST
Mostly Cloudy
Mostly Cloudy
 Wind from ENE
Wind: ENE 3 mph , 6 km/h
Temperature: 79°F , 26°C
Dew Point: 68°F , 20°C
Humidity: 70%
Barometer: 29.93 inHg , 1013.5 hPa
Clouds: Mostly Cloudy
Visibility: 10 miles , 16 km
Cloud details: Few Clouds 4900 ft
Mostly Cloudy 11000 ft
2019/10/22 13:53 PHKO 221353Z AUTO 06003KT 10SM FEW049 BKN110 26/20 A2993 RMK AO2 SLP134 T02560200 TSNO
PHSF - Bradshaw Aaf/Haw, Hawaii, USA
Distance from station: SE 90mi, 145km
Updated: Tue, 22-Oct-2019 3:58am HST
Clear
Clear
 Wind from SSE
Wind: SSE 7 mph , 11 km/h
Temperature: 54°F , 12°C
Dew Point: 50°F , 10°C
Humidity: 88%
Barometer: 30.30 inHg , 1026.1 hPa
Clouds: Clear
Visibility: 10 miles , 16 km
2019/10/22 13:58 PHSF 221358Z AUTO 16006KT 10SM CLR 12/10 A3030 RMK AO2 SLP143 T01150103 TSNO $
 
PHNG - Kaneohe Mcas, Hawaii, USA
Distance from station: WNW 102mi, 164km
Updated: Tue, 22-Oct-2019 4:16am HST
Overcast
Overcast
 Wind from E
Wind: E 8 mph , 13 km/h
Temperature: 81°F , 27°C
Heat Index: 85°F , 29°C
Dew Point: 70°F , 21°C
Humidity: 70%
Barometer: 29.97 inHg , 1014.9 hPa
Clouds: Overcast
Visibility: 10 miles , 16 km
Cloud details: Partly Cloudy 2700 ft
Mostly Cloudy 3200 ft
Overcast 4900 ft
2019/10/22 14:16 PHNG 221416Z 09007KT 10SM SCT027 BKN032 OVC049 27/21 A2997 RMK AO2 T02670206
PHNL - Honolulu, Hawaii, USA
Distance from station: WNW 108mi, 174km
Updated: Tue, 22-Oct-2019 3:53am HST
Few Clouds
Few Clouds
 Wind from NE
Wind: NE 7 mph , 11 km/h
Temperature: 81°F , 27°C
Heat Index: 84°F , 29°C
Dew Point: 68°F , 20°C
Humidity: 66%
Barometer: 29.97 inHg , 1014.9 hPa
Clouds: Few Clouds
Visibility: 10 miles , 16 km
Cloud details: Few Clouds 3300 ft
2019/10/22 13:53 PHNL 221353Z 05006KT 10SM FEW033 27/20 A2997 RMK AO2 SLP150 T02670200 $
 
PHTO - Hilo, Hawaii, USA
Distance from station: SE 114mi, 183km
Updated: Tue, 22-Oct-2019 3:53am HST
Overcast
Overcast
 Wind from SW
Wind: SW 6 mph , 9 km/h
Temperature: 75°F , 24°C
Dew Point: 68°F , 20°C
Humidity: 78%
Barometer: 29.99 inHg , 1015.6 hPa
Clouds: Overcast
Visibility: 10 miles , 16 km
Cloud details: Mostly Cloudy 3400 ft
Mostly Cloudy 4500 ft
Overcast 6000 ft
2019/10/22 13:53 PHTO 221353Z AUTO 23005KT 10SM BKN034 BKN045 OVC060 24/20 A2999 RMK AO2 RAE01 SLP155 P0001 T02390200 TSNO
PHJR - Kalaeloa, Hawaii, USA
Distance from station: WNW 117mi, 189km
Updated: Tue, 22-Oct-2019 1:53am HST
NOT Current
Clear
Clear
 Wind from NE
Wind: NE 5 mph , 7 km/h
Temperature: 75°F , 24°C
Dew Point: 70°F , 21°C
Humidity: 83%
Barometer: 30.01 inHg , 1016.3 hPa
Clouds: Clear
Visibility: 10 miles , 16 km
2019/10/22 11:53 PHJR 221153Z AUTO 05004KT 10SM CLR 24/21 A3001 RMK AO2 SLP167 T02440206 10272 20244 58009 TSNO
 
PHHI - Wheeler Afb/Oahu, Hawaii, USA
Distance from station: WNW 120mi, 193km
Updated: Tue, 22-Oct-2019 3:56am HST
Mostly Cloudy
Mostly Cloudy
 Wind from calm
Wind: Calm
Temperature: 73°F , 23°C
Dew Point: 68°F , 20°C
Humidity: 83%
Barometer: 30.00 inHg , 1015.9 hPa
Clouds: Mostly Cloudy
Visibility: 10 miles , 16 km
Cloud details: Mostly Cloudy 2600 ft
2019/10/22 13:56 PHHI 221356Z AUTO 00000KT 10SM BKN026 23/20 A3000 RMK AO2 SLP146 T02340203 $
PHLI - Lihue/Kauai Is, Hawaii, USA
Distance from station: WNW 209mi, 336km
Updated: Tue, 22-Oct-2019 4:02am HST
Overcast
Overcast
 Wind from NE
Wind: NE 10 mph , 17 km/h
Temperature: 79°F , 26°C
Dew Point: 73°F , 23°C
Humidity: 84%
Barometer: 30.01 inHg , 1016.3 hPa
Clouds: Overcast
Visibility: 10 miles , 16 km
Cloud details: Partly Cloudy 1900 ft
Mostly Cloudy 2400 ft
Overcast 6000 ft
2019/10/22 14:02 PHLI 221402Z AUTO 05009KT 10SM SCT019 BKN024 OVC060 26/23 A3001 RMK AO2 T02610228 TSNO
 
PHBK - Barking Sands/Ka, Hawaii, USA
Distance from station: WNW 237mi, 382km
Updated: Tue, 22-Oct-2019 3:56am HST
Clear
Clear
 Wind from ENE
Wind: ENE 5 mph , 7 km/h
Temperature: 75°F , 24°C
Dew Point: 70°F , 21°C
Humidity: 83%
Barometer: 29.97 inHg , 1014.9 hPa
Clouds: Clear
Visibility: 10 miles , 16 km
2019/10/22 13:56 PHBK 221356Z AUTO 06004KT 10SM CLR 24/21 A2997 RMK AO2 SLP151 T02390206